sensor_id;sensor_type;location;lat;lon;timestamp;P1;durP1;ratioP1;P2;durP2;ratioP2
41039;SDS011;48586;50.122;18.972;2022-09-02T00:02:02;11.45;;;5.07;;
41039;SDS011;48586;50.122;18.972;2022-09-02T00:05:05;10.50;;;5.43;;
41039;SDS011;48586;50.122;18.972;2022-09-02T00:08:08;12.10;;;5.35;;
41039;SDS011;48586;50.122;18.972;2022-09-02T00:11:12;9.65;;;5.20;;
41039;SDS011;48586;50.122;18.972;2022-09-02T00:17:21;8.77;;;4.07;;
41039;SDS011;48586;50.122;18.972;2022-09-02T00:20:23;9.55;;;4.70;;
41039;SDS011;48586;50.122;18.972;2022-09-02T00:23:25;10.85;;;4.43;;
41039;SDS011;48586;50.122;18.972;2022-09-02T00:26:27;9.88;;;4.75;;
41039;SDS011;48586;50.122;18.972;2022-09-02T00:29:30;7.95;;;3.30;;
41039;SDS011;48586;50.122;18.972;2022-09-02T00:32:33;5.30;;;2.75;;
41039;SDS011;48586;50.122;18.972;2022-09-02T00:35:35;6.78;;;3.08;;
41039;SDS011;48586;50.122;18.972;2022-09-02T00:38:37;8.18;;;3.50;;
41039;SDS011;48586;50.122;18.972;2022-09-02T00:41:41;6.57;;;3.30;;
41039;SDS011;48586;50.122;18.972;2022-09-02T00:44:44;8.88;;;3.42;;
41039;SDS011;48586;50.122;18.972;2022-09-02T00:47:47;7.43;;;3.28;;
41039;SDS011;48586;50.122;18.972;2022-09-02T00:53:53;7.55;;;3.53;;
41039;SDS011;48586;50.122;18.972;2022-09-02T00:56:55;6.97;;;3.47;;
41039;SDS011;48586;50.122;18.972;2022-09-02T01:00:00;6.25;;;3.25;;
41039;SDS011;48586;50.122;18.972;2022-09-02T01:03:10;7.95;;;3.20;;
41039;SDS011;48586;50.122;18.972;2022-09-02T01:06:14;7.88;;;3.42;;
41039;SDS011;48586;50.122;18.972;2022-09-02T01:09:21;8.30;;;3.20;;
41039;SDS011;48586;50.122;18.972;2022-09-02T01:12:23;7.65;;;3.35;;
41039;SDS011;48586;50.122;18.972;2022-09-02T01:15:27;7.18;;;3.13;;
41039;SDS011;48586;50.122;18.972;2022-09-02T01:18:32;6.20;;;3.15;;
41039;SDS011;48586;50.122;18.972;2022-09-02T01:21:36;7.93;;;3.30;;
41039;SDS011;48586;50.122;18.972;2022-09-02T01:24:40;6.38;;;3.20;;
41039;SDS011;48586;50.122;18.972;2022-09-02T01:27:43;8.98;;;3.35;;
41039;SDS011;48586;50.122;18.972;2022-09-02T01:30:47;10.18;;;3.50;;
41039;SDS011;48586;50.122;18.972;2022-09-02T01:33:51;10.10;;;3.65;;
41039;SDS011;48586;50.122;18.972;2022-09-02T01:36:55;6.68;;;3.65;;
41039;SDS011;48586;50.122;18.972;2022-09-02T01:39:58;5.72;;;3.20;;
41039;SDS011;48586;50.122;18.972;2022-09-02T01:43:03;8.23;;;4.07;;
41039;SDS011;48586;50.122;18.972;2022-09-02T01:46:07;12.00;;;4.38;;
41039;SDS011;48586;50.122;18.972;2022-09-02T01:49:10;9.98;;;5.03;;
41039;SDS011;48586;50.122;18.972;2022-09-02T01:52:14;11.68;;;5.10;;
41039;SDS011;48586;50.122;18.972;2022-09-02T01:55:20;8.18;;;4.40;;
41039;SDS011;48586;50.122;18.972;2022-09-02T01:58:24;7.72;;;4.38;;
41039;SDS011;48586;50.122;18.972;2022-09-02T02:01:27;11.63;;;3.92;;
41039;SDS011;48586;50.122;18.972;2022-09-02T02:04:31;9.43;;;3.95;;
41039;SDS011;48586;50.122;18.972;2022-09-02T02:07:33;11.77;;;4.20;;
41039;SDS011;48586;50.122;18.972;2022-09-02T02:10:38;10.73;;;4.40;;
41039;SDS011;48586;50.122;18.972;2022-09-02T02:13:41;8.85;;;4.00;;
41039;SDS011;48586;50.122;18.972;2022-09-02T02:16:44;8.88;;;4.32;;
41039;SDS011;48586;50.122;18.972;2022-09-02T02:19:46;8.00;;;3.78;;
41039;SDS011;48586;50.122;18.972;2022-09-02T02:22:49;9.48;;;3.88;;
41039;SDS011;48586;50.122;18.972;2022-09-02T02:25:52;10.45;;;4.18;;
41039;SDS011;48586;50.122;18.972;2022-09-02T02:28:55;8.98;;;3.75;;
41039;SDS011;48586;50.122;18.972;2022-09-02T02:31:57;7.72;;;4.03;;
41039;SDS011;48586;50.122;18.972;2022-09-02T02:35:00;8.60;;;4.22;;
41039;SDS011;48586;50.122;18.972;2022-09-02T02:38:03;8.50;;;4.00;;
41039;SDS011;48586;50.122;18.972;2022-09-02T02:41:08;9.18;;;3.70;;
41039;SDS011;48586;50.122;18.972;2022-09-02T02:44:10;15.13;;;4.20;;
41039;SDS011;48586;50.122;18.972;2022-09-02T02:47:13;6.47;;;3.80;;
41039;SDS011;48586;50.122;18.972;2022-09-02T02:50:17;6.45;;;3.47;;
41039;SDS011;48586;50.122;18.972;2022-09-02T02:53:21;6.68;;;3.60;;
41039;SDS011;48586;50.122;18.972;2022-09-02T02:56:25;9.82;;;4.07;;
41039;SDS011;48586;50.122;18.972;2022-09-02T02:59:27;7.97;;;3.60;;
41039;SDS011;48586;50.122;18.972;2022-09-02T03:02:30;11.52;;;4.05;;
41039;SDS011;48586;50.122;18.972;2022-09-02T03:05:34;7.28;;;3.33;;
41039;SDS011;48586;50.122;18.972;2022-09-02T03:08:38;6.78;;;3.88;;
41039;SDS011;48586;50.122;18.972;2022-09-02T03:11:42;8.18;;;3.92;;
41039;SDS011;48586;50.122;18.972;2022-09-02T03:14:45;9.43;;;4.50;;
41039;SDS011;48586;50.122;18.972;2022-09-02T03:17:48;8.77;;;4.40;;
41039;SDS011;48586;50.122;18.972;2022-09-02T03:20:50;17.02;;;4.80;;
41039;SDS011;48586;50.122;18.972;2022-09-02T03:23:52;7.75;;;3.83;;
41039;SDS011;48586;50.122;18.972;2022-09-02T03:26:56;8.27;;;3.72;;
41039;SDS011;48586;50.122;18.972;2022-09-02T03:29:58;11.88;;;4.05;;
41039;SDS011;48586;50.122;18.972;2022-09-02T03:33:01;7.55;;;3.72;;
41039;SDS011;48586;50.122;18.972;2022-09-02T03:36:05;9.60;;;3.70;;
41039;SDS011;48586;50.122;18.972;2022-09-02T03:39:09;7.18;;;3.42;;
41039;SDS011;48586;50.122;18.972;2022-09-02T03:42:16;7.80;;;3.75;;
41039;SDS011;48586;50.122;18.972;2022-09-02T03:45:18;11.07;;;4.03;;
41039;SDS011;48586;50.122;18.972;2022-09-02T03:48:22;8.15;;;4.13;;
41039;SDS011;48586;50.122;18.972;2022-09-02T03:51:24;7.50;;;4.00;;
41039;SDS011;48586;50.122;18.972;2022-09-02T03:54:27;7.57;;;4.65;;
41039;SDS011;48586;50.122;18.972;2022-09-02T03:57:31;10.38;;;4.30;;
41039;SDS011;48586;50.122;18.972;2022-09-02T04:00:35;8.27;;;4.40;;
41039;SDS011;48586;50.122;18.972;2022-09-02T04:03:38;9.38;;;3.90;;
41039;SDS011;48586;50.122;18.972;2022-09-02T04:06:40;11.95;;;4.63;;
41039;SDS011;48586;50.122;18.972;2022-09-02T04:09:42;14.32;;;5.28;;
41039;SDS011;48586;50.122;18.972;2022-09-02T04:12:45;15.85;;;5.90;;
41039;SDS011;48586;50.122;18.972;2022-09-02T04:15:47;15.80;;;6.13;;
41039;SDS011;48586;50.122;18.972;2022-09-02T04:18:50;19.17;;;7.25;;
41039;SDS011;48586;50.122;18.972;2022-09-02T04:21:52;17.30;;;5.60;;
41039;SDS011;48586;50.122;18.972;2022-09-02T04:24:54;10.90;;;5.53;;
41039;SDS011;48586;50.122;18.972;2022-09-02T04:27:58;9.85;;;5.22;;
41039;SDS011;48586;50.122;18.972;2022-09-02T04:31:02;12.63;;;7.00;;
41039;SDS011;48586;50.122;18.972;2022-09-02T04:34:04;14.93;;;6.57;;
41039;SDS011;48586;50.122;18.972;2022-09-02T04:37:07;17.42;;;6.07;;
41039;SDS011;48586;50.122;18.972;2022-09-02T04:40:09;14.00;;;6.43;;
41039;SDS011;48586;50.122;18.972;2022-09-02T04:43:13;16.23;;;6.43;;
41039;SDS011;48586;50.122;18.972;2022-09-02T04:46:16;12.27;;;6.30;;
41039;SDS011;48586;50.122;18.972;2022-09-02T04:49:18;18.45;;;7.88;;
41039;SDS011;48586;50.122;18.972;2022-09-02T04:52:22;23.83;;;10.75;;
41039;SDS011;48586;50.122;18.972;2022-09-02T04:55:24;14.38;;;6.68;;
41039;SDS011;48586;50.122;18.972;2022-09-02T04:58:28;16.08;;;5.53;;
41039;SDS011;48586;50.122;18.972;2022-09-02T05:01:31;14.40;;;6.10;;
41039;SDS011;48586;50.122;18.972;2022-09-02T05:04:41;17.15;;;6.70;;
41039;SDS011;48586;50.122;18.972;2022-09-02T05:07:51;14.10;;;6.18;;
41039;SDS011;48586;50.122;18.972;2022-09-02T05:10:56;14.02;;;6.03;;
41039;SDS011;48586;50.122;18.972;2022-09-02T05:14:04;18.48;;;6.10;;
41039;SDS011;48586;50.122;18.972;2022-09-02T05:17:08;12.30;;;4.90;;
41039;SDS011;48586;50.122;18.972;2022-09-02T05:20:14;14.57;;;4.60;;
41039;SDS011;48586;50.122;18.972;2022-09-02T05:23:18;11.70;;;4.00;;
41039;SDS011;48586;50.122;18.972;2022-09-02T05:26:20;8.55;;;3.83;;
41039;SDS011;48586;50.122;18.972;2022-09-02T05:29:26;9.33;;;3.47;;
41039;SDS011;48586;50.122;18.972;2022-09-02T05:32:30;10.77;;;3.40;;
41039;SDS011;48586;50.122;18.972;2022-09-02T05:35:32;8.48;;;3.22;;
41039;SDS011;48586;50.122;18.972;2022-09-02T05:38:34;6.70;;;2.85;;
41039;SDS011;48586;50.122;18.972;2022-09-02T05:41:37;7.50;;;3.30;;
41039;SDS011;48586;50.122;18.972;2022-09-02T05:44:42;5.20;;;2.90;;
41039;SDS011;48586;50.122;18.972;2022-09-02T05:47:45;8.57;;;3.20;;
41039;SDS011;48586;50.122;18.972;2022-09-02T05:50:47;9.52;;;2.88;;
41039;SDS011;48586;50.122;18.972;2022-09-02T05:53:50;8.60;;;3.00;;
41039;SDS011;48586;50.122;18.972;2022-09-02T05:56:54;10.07;;;2.80;;
41039;SDS011;48586;50.122;18.972;2022-09-02T06:03:14;7.15;;;3.08;;
41039;SDS011;48586;50.122;18.972;2022-09-02T06:10:58;8.50;;;3.20;;
41039;SDS011;48586;50.122;18.972;2022-09-02T06:14:02;10.77;;;3.50;;
41039;SDS011;48586;50.122;18.972;2022-09-02T06:17:11;7.55;;;3.17;;
41039;SDS011;48586;50.122;18.972;2022-09-02T06:20:22;7.35;;;2.80;;
41039;SDS011;48586;50.122;18.972;2022-09-02T06:23:25;12.23;;;4.95;;
41039;SDS011;48586;50.122;18.972;2022-09-02T06:26:28;15.05;;;3.42;;
41039;SDS011;48586;50.122;18.972;2022-09-02T06:29:30;9.65;;;3.17;;
41039;SDS011;48586;50.122;18.972;2022-09-02T06:32:33;11.10;;;3.72;;
41039;SDS011;48586;50.122;18.972;2022-09-02T06:35:42;11.23;;;3.50;;
41039;SDS011;48586;50.122;18.972;2022-09-02T06:38:48;9.38;;;3.55;;
41039;SDS011;48586;50.122;18.972;2022-09-02T06:41:52;9.10;;;3.30;;
41039;SDS011;48586;50.122;18.972;2022-09-02T06:44:56;14.50;;;3.45;;
41039;SDS011;48586;50.122;18.972;2022-09-02T06:48:00;11.60;;;3.70;;
41039;SDS011;48586;50.122;18.972;2022-09-02T06:51:06;10.48;;;3.25;;
41039;SDS011;48586;50.122;18.972;2022-09-02T06:54:09;9.88;;;2.95;;
41039;SDS011;48586;50.122;18.972;2022-09-02T06:57:13;9.05;;;3.40;;
41039;SDS011;48586;50.122;18.972;2022-09-02T07:00:16;7.72;;;2.78;;
41039;SDS011;48586;50.122;18.972;2022-09-02T07:03:21;5.80;;;3.07;;
41039;SDS011;48586;50.122;18.972;2022-09-02T07:06:42;6.85;;;3.20;;
41039;SDS011;48586;50.122;18.972;2022-09-02T07:09:48;7.22;;;3.30;;
41039;SDS011;48586;50.122;18.972;2022-09-02T07:12:51;6.90;;;3.63;;
41039;SDS011;48586;50.122;18.972;2022-09-02T07:15:55;5.72;;;2.85;;
41039;SDS011;48586;50.122;18.972;2022-09-02T07:18:58;10.65;;;2.88;;
41039;SDS011;48586;50.122;18.972;2022-09-02T07:22:02;6.07;;;2.92;;
41039;SDS011;48586;50.122;18.972;2022-09-02T07:25:07;7.32;;;2.83;;
41039;SDS011;48586;50.122;18.972;2022-09-02T07:31:15;6.60;;;3.10;;
41039;SDS011;48586;50.122;18.972;2022-09-02T07:34:20;6.63;;;3.15;;
41039;SDS011;48586;50.122;18.972;2022-09-02T07:37:23;8.30;;;3.03;;
41039;SDS011;48586;50.122;18.972;2022-09-02T07:40:27;7.53;;;3.22;;
41039;SDS011;48586;50.122;18.972;2022-09-02T07:47:24;6.72;;;2.88;;
41039;SDS011;48586;50.122;18.972;2022-09-02T07:50:27;13.55;;;4.85;;
41039;SDS011;48586;50.122;18.972;2022-09-02T07:53:31;7.20;;;3.63;;
41039;SDS011;48586;50.122;18.972;2022-09-02T07:56:34;10.48;;;2.78;;
41039;SDS011;48586;50.122;18.972;2022-09-02T07:59:36;9.52;;;2.70;;
41039;SDS011;48586;50.122;18.972;2022-09-02T08:07:22;7.50;;;2.20;;
41039;SDS011;48586;50.122;18.972;2022-09-02T08:10:24;4.63;;;1.80;;
41039;SDS011;48586;50.122;18.972;2022-09-02T08:13:28;5.85;;;2.22;;
41039;SDS011;48586;50.122;18.972;2022-09-02T08:16:30;3.97;;;1.77;;
41039;SDS011;48586;50.122;18.972;2022-09-02T08:19:32;3.22;;;1.63;;
41039;SDS011;48586;50.122;18.972;2022-09-02T08:22:36;8.88;;;2.10;;
41039;SDS011;48586;50.122;18.972;2022-09-02T08:25:38;4.13;;;1.77;;
41039;SDS011;48586;50.122;18.972;2022-09-02T08:28:41;5.30;;;1.77;;
41039;SDS011;48586;50.122;18.972;2022-09-02T08:34:47;2.33;;;1.45;;
41039;SDS011;48586;50.122;18.972;2022-09-02T08:37:51;3.70;;;1.42;;
41039;SDS011;48586;50.122;18.972;2022-09-02T08:40:53;5.45;;;1.30;;
41039;SDS011;48586;50.122;18.972;2022-09-02T08:43:55;2.53;;;1.65;;
41039;SDS011;48586;50.122;18.972;2022-09-02T08:47:01;7.18;;;1.23;;
41039;SDS011;48586;50.122;18.972;2022-09-02T08:50:07;4.03;;;1.40;;
41039;SDS011;48586;50.122;18.972;2022-09-02T08:53:16;4.07;;;1.38;;
41039;SDS011;48586;50.122;18.972;2022-09-02T08:56:26;6.40;;;1.45;;
41039;SDS011;48586;50.122;18.972;2022-09-02T08:59:29;8.55;;;1.77;;
41039;SDS011;48586;50.122;18.972;2022-09-02T09:02:34;2.15;;;1.30;;
41039;SDS011;48586;50.122;18.972;2022-09-02T09:05:47;2.15;;;1.10;;
41039;SDS011;48586;50.122;18.972;2022-09-02T09:08:55;8.20;;;1.42;;
41039;SDS011;48586;50.122;18.972;2022-09-02T09:12:07;4.50;;;1.38;;
41039;SDS011;48586;50.122;18.972;2022-09-02T09:15:14;2.30;;;1.02;;
41039;SDS011;48586;50.122;18.972;2022-09-02T09:18:24;5.18;;;1.30;;
41039;SDS011;48586;50.122;18.972;2022-09-02T09:21:34;1.92;;;1.05;;
41039;SDS011;48586;50.122;18.972;2022-09-02T09:24:38;5.07;;;1.35;;
41039;SDS011;48586;50.122;18.972;2022-09-02T09:27:42;3.20;;;1.10;;
41039;SDS011;48586;50.122;18.972;2022-09-02T09:30:46;10.05;;;1.10;;
41039;SDS011;48586;50.122;18.972;2022-09-02T09:33:55;2.75;;;1.13;;
41039;SDS011;48586;50.122;18.972;2022-09-02T09:36:58;4.35;;;1.00;;
41039;SDS011;48586;50.122;18.972;2022-09-02T09:40:01;3.13;;;1.00;;
41039;SDS011;48586;50.122;18.972;2022-09-02T09:43:23;9.38;;;1.10;;
41039;SDS011;48586;50.122;18.972;2022-09-02T09:46:31;3.70;;;1.00;;
41039;SDS011;48586;50.122;18.972;2022-09-02T09:49:33;1.85;;;0.85;;
41039;SDS011;48586;50.122;18.972;2022-09-02T09:52:36;6.10;;;0.90;;
41039;SDS011;48586;50.122;18.972;2022-09-02T09:55:48;1.45;;;0.77;;
41039;SDS011;48586;50.122;18.972;2022-09-02T09:58:55;6.70;;;0.80;;
41039;SDS011;48586;50.122;18.972;2022-09-02T10:05:30;1.48;;;0.90;;
41039;SDS011;48586;50.122;18.972;2022-09-02T10:08:34;4.00;;;0.90;;
41039;SDS011;48586;50.122;18.972;2022-09-02T10:11:56;1.55;;;0.82;;
41039;SDS011;48586;50.122;18.972;2022-09-02T10:14:59;1.15;;;0.80;;
41039;SDS011;48586;50.122;18.972;2022-09-02T10:18:04;5.45;;;1.00;;
41039;SDS011;48586;50.122;18.972;2022-09-02T10:21:23;4.97;;;1.00;;
41039;SDS011;48586;50.122;18.972;2022-09-02T10:24:39;2.50;;;0.90;;
41039;SDS011;48586;50.122;18.972;2022-09-02T10:27:56;3.03;;;1.00;;
41039;SDS011;48586;50.122;18.972;2022-09-02T10:34:14;1.38;;;0.90;;
41039;SDS011;48586;50.122;18.972;2022-09-02T10:37:23;2.47;;;1.10;;
41039;SDS011;48586;50.122;18.972;2022-09-02T10:40:29;4.10;;;0.90;;
41039;SDS011;48586;50.122;18.972;2022-09-02T10:43:47;2.38;;;1.08;;
41039;SDS011;48586;50.122;18.972;2022-09-02T10:47:09;3.50;;;0.98;;
41039;SDS011;48586;50.122;18.972;2022-09-02T10:50:19;3.33;;;1.00;;
41039;SDS011;48586;50.122;18.972;2022-09-02T10:53:32;2.15;;;1.17;;
41039;SDS011;48586;50.122;18.972;2022-09-02T10:56:46;2.78;;;1.40;;
41039;SDS011;48586;50.122;18.972;2022-09-02T10:59:56;6.80;;;1.30;;
41039;SDS011;48586;50.122;18.972;2022-09-02T11:03:06;3.42;;;1.38;;
41039;SDS011;48586;50.122;18.972;2022-09-02T11:06:17;6.10;;;1.70;;
41039;SDS011;48586;50.122;18.972;2022-09-02T11:09:25;6.60;;;1.98;;
41039;SDS011;48586;50.122;18.972;2022-09-02T11:12:30;3.00;;;1.55;;
41039;SDS011;48586;50.122;18.972;2022-09-02T11:15:40;3.45;;;2.10;;
41039;SDS011;48586;50.122;18.972;2022-09-02T11:18:48;4.10;;;2.67;;
41039;SDS011;48586;50.122;18.972;2022-09-02T11:21:58;3.45;;;1.90;;
41039;SDS011;48586;50.122;18.972;2022-09-02T11:25:05;3.38;;;1.23;;
41039;SDS011;48586;50.122;18.972;2022-09-02T11:28:18;6.13;;;3.15;;
41039;SDS011;48586;50.122;18.972;2022-09-02T11:31:29;2.28;;;1.20;;
41039;SDS011;48586;50.122;18.972;2022-09-02T11:34:36;4.18;;;1.20;;
41039;SDS011;48586;50.122;18.972;2022-09-02T11:37:44;3.38;;;1.83;;
41039;SDS011;48586;50.122;18.972;2022-09-02T11:40:58;2.20;;;1.58;;
41039;SDS011;48586;50.122;18.972;2022-09-02T11:44:21;4.32;;;2.38;;
41039;SDS011;48586;50.122;18.972;2022-09-02T11:47:45;6.50;;;1.50;;
41039;SDS011;48586;50.122;18.972;2022-09-02T11:51:11;8.05;;;1.40;;
41039;SDS011;48586;50.122;18.972;2022-09-02T11:54:28;3.60;;;1.13;;
41039;SDS011;48586;50.122;18.972;2022-09-02T11:57:36;8.00;;;2.67;;
41039;SDS011;48586;50.122;18.972;2022-09-02T12:04:23;3.33;;;1.20;;
41039;SDS011;48586;50.122;18.972;2022-09-02T12:07:27;4.32;;;2.00;;
41039;SDS011;48586;50.122;18.972;2022-09-02T12:14:00;4.88;;;1.58;;
41039;SDS011;48586;50.122;18.972;2022-09-02T12:17:02;4.45;;;1.23;;
41039;SDS011;48586;50.122;18.972;2022-09-02T12:20:08;7.07;;;1.33;;
41039;SDS011;48586;50.122;18.972;2022-09-02T12:23:59;5.43;;;1.60;;
41039;SDS011;48586;50.122;18.972;2022-09-02T12:27:03;5.65;;;1.30;;
41039;SDS011;48586;50.122;18.972;2022-09-02T12:30:09;3.47;;;1.60;;
41039;SDS011;48586;50.122;18.972;2022-09-02T12:33:13;4.07;;;2.05;;
41039;SDS011;48586;50.122;18.972;2022-09-02T12:36:48;2.50;;;1.85;;
41039;SDS011;48586;50.122;18.972;2022-09-02T12:39:52;4.30;;;1.75;;
41039;SDS011;48586;50.122;18.972;2022-09-02T12:42:58;1.30;;;0.90;;
41039;SDS011;48586;50.122;18.972;2022-09-02T12:46:05;2.15;;;1.40;;
41039;SDS011;48586;50.122;18.972;2022-09-02T12:52:49;2.60;;;0.80;;
41039;SDS011;48586;50.122;18.972;2022-09-02T12:55:53;3.60;;;1.30;;
41039;SDS011;48586;50.122;18.972;2022-09-02T12:59:01;3.13;;;1.30;;
41039;SDS011;48586;50.122;18.972;2022-09-02T13:02:07;2.80;;;1.52;;
41039;SDS011;48586;50.122;18.972;2022-09-02T13:05:18;6.30;;;1.67;;
41039;SDS011;48586;50.122;18.972;2022-09-02T13:12:18;6.55;;;1.40;;
41039;SDS011;48586;50.122;18.972;2022-09-02T13:15:46;3.00;;;1.25;;
41039;SDS011;48586;50.122;18.972;2022-09-02T13:22:40;5.22;;;2.47;;
41039;SDS011;48586;50.122;18.972;2022-09-02T13:26:07;3.35;;;1.75;;
41039;SDS011;48586;50.122;18.972;2022-09-02T13:29:32;3.53;;;1.92;;
41039;SDS011;48586;50.122;18.972;2022-09-02T13:32:58;5.47;;;1.73;;
41039;SDS011;48586;50.122;18.972;2022-09-02T13:36:06;6.07;;;1.58;;
41039;SDS011;48586;50.122;18.972;2022-09-02T13:39:09;3.63;;;1.65;;
41039;SDS011;48586;50.122;18.972;2022-09-02T13:42:16;2.40;;;1.67;;
41039;SDS011;48586;50.122;18.972;2022-09-02T13:45:21;2.47;;;1.38;;
41039;SDS011;48586;50.122;18.972;2022-09-02T13:48:24;3.83;;;2.28;;
41039;SDS011;48586;50.122;18.972;2022-09-02T13:51:27;4.25;;;1.70;;
41039;SDS011;48586;50.122;18.972;2022-09-02T13:54:33;5.10;;;1.38;;
41039;SDS011;48586;50.122;18.972;2022-09-02T13:57:41;4.40;;;2.60;;
41039;SDS011;48586;50.122;18.972;2022-09-02T14:00:47;4.20;;;2.00;;
41039;SDS011;48586;50.122;18.972;2022-09-02T14:03:50;5.22;;;1.70;;
41039;SDS011;48586;50.122;18.972;2022-09-02T14:06:53;4.38;;;1.60;;
41039;SDS011;48586;50.122;18.972;2022-09-02T14:09:56;4.25;;;1.58;;
41039;SDS011;48586;50.122;18.972;2022-09-02T14:13:03;2.08;;;1.35;;
41039;SDS011;48586;50.122;18.972;2022-09-02T14:19:26;3.17;;;1.30;;
41039;SDS011;48586;50.122;18.972;2022-09-02T14:22:30;1.38;;;1.10;;
41039;SDS011;48586;50.122;18.972;2022-09-02T14:25:34;5.55;;;1.40;;
41039;SDS011;48586;50.122;18.972;2022-09-02T14:28:39;6.95;;;1.40;;
41039;SDS011;48586;50.122;18.972;2022-09-02T14:31:42;4.18;;;1.30;;
41039;SDS011;48586;50.122;18.972;2022-09-02T14:34:45;5.50;;;2.10;;
41039;SDS011;48586;50.122;18.972;2022-09-02T14:37:50;2.67;;;1.75;;
41039;SDS011;48586;50.122;18.972;2022-09-02T14:40:58;5.07;;;1.80;;
41039;SDS011;48586;50.122;18.972;2022-09-02T14:44:08;3.42;;;1.60;;
41039;SDS011;48586;50.122;18.972;2022-09-02T14:47:13;6.32;;;1.50;;
41039;SDS011;48586;50.122;18.972;2022-09-02T14:53:22;4.47;;;1.40;;
41039;SDS011;48586;50.122;18.972;2022-09-02T14:56:48;2.70;;;1.20;;
41039;SDS011;48586;50.122;18.972;2022-09-02T14:59:54;3.22;;;1.40;;
41039;SDS011;48586;50.122;18.972;2022-09-02T15:02:57;3.58;;;1.27;;
41039;SDS011;48586;50.122;18.972;2022-09-02T15:06:00;4.20;;;1.70;;
41039;SDS011;48586;50.122;18.972;2022-09-02T15:09:02;3.40;;;1.67;;
41039;SDS011;48586;50.122;18.972;2022-09-02T15:12:05;6.30;;;1.70;;
41039;SDS011;48586;50.122;18.972;2022-09-02T15:15:09;6.10;;;2.45;;
41039;SDS011;48586;50.122;18.972;2022-09-02T15:18:11;4.35;;;2.03;;
41039;SDS011;48586;50.122;18.972;2022-09-02T15:21:14;4.70;;;1.60;;
41039;SDS011;48586;50.122;18.972;2022-09-02T15:24:17;3.63;;;1.70;;
41039;SDS011;48586;50.122;18.972;2022-09-02T15:27:20;6.05;;;2.15;;
41039;SDS011;48586;50.122;18.972;2022-09-02T15:30:24;5.53;;;2.85;;
41039;SDS011;48586;50.122;18.972;2022-09-02T15:33:26;6.30;;;2.35;;
41039;SDS011;48586;50.122;18.972;2022-09-02T15:36:29;4.88;;;2.17;;
41039;SDS011;48586;50.122;18.972;2022-09-02T15:39:32;2.80;;;1.98;;
41039;SDS011;48586;50.122;18.972;2022-09-02T15:42:36;7.13;;;2.87;;
41039;SDS011;48586;50.122;18.972;2022-09-02T15:45:43;6.90;;;2.05;;
41039;SDS011;48586;50.122;18.972;2022-09-02T15:48:47;4.40;;;2.22;;
41039;SDS011;48586;50.122;18.972;2022-09-02T15:51:50;4.95;;;2.30;;
41039;SDS011;48586;50.122;18.972;2022-09-02T15:54:54;2.67;;;1.77;;
41039;SDS011;48586;50.122;18.972;2022-09-02T15:57:56;2.70;;;1.38;;
41039;SDS011;48586;50.122;18.972;2022-09-02T16:01:04;4.05;;;1.50;;
41039;SDS011;48586;50.122;18.972;2022-09-02T16:04:06;3.22;;;1.70;;
41039;SDS011;48586;50.122;18.972;2022-09-02T16:07:09;3.30;;;1.67;;
41039;SDS011;48586;50.122;18.972;2022-09-02T16:10:11;4.85;;;1.65;;
41039;SDS011;48586;50.122;18.972;2022-09-02T16:13:14;7.32;;;1.73;;
41039;SDS011;48586;50.122;18.972;2022-09-02T16:16:18;6.75;;;4.05;;
41039;SDS011;48586;50.122;18.972;2022-09-02T16:19:22;5.97;;;2.13;;
41039;SDS011;48586;50.122;18.972;2022-09-02T16:22:25;6.20;;;2.95;;
41039;SDS011;48586;50.122;18.972;2022-09-02T16:25:27;4.43;;;1.67;;
41039;SDS011;48586;50.122;18.972;2022-09-02T16:28:32;10.13;;;2.38;;
41039;SDS011;48586;50.122;18.972;2022-09-02T16:31:37;6.78;;;2.10;;
41039;SDS011;48586;50.122;18.972;2022-09-02T16:34:40;4.88;;;1.65;;
41039;SDS011;48586;50.122;18.972;2022-09-02T16:37:44;8.02;;;2.90;;
41039;SDS011;48586;50.122;18.972;2022-09-02T16:40:48;7.53;;;2.10;;
41039;SDS011;48586;50.122;18.972;2022-09-02T16:46:55;6.50;;;2.58;;
41039;SDS011;48586;50.122;18.972;2022-09-02T16:49:57;3.75;;;2.22;;
41039;SDS011;48586;50.122;18.972;2022-09-02T16:52:59;6.53;;;3.30;;
41039;SDS011;48586;50.122;18.972;2022-09-02T16:56:02;6.78;;;2.80;;
41039;SDS011;48586;50.122;18.972;2022-09-02T16:59:05;6.63;;;2.88;;
41039;SDS011;48586;50.122;18.972;2022-09-02T17:02:10;7.50;;;3.00;;
41039;SDS011;48586;50.122;18.972;2022-09-02T17:05:11;8.20;;;3.70;;
41039;SDS011;48586;50.122;18.972;2022-09-02T17:08:16;5.53;;;2.95;;
41039;SDS011;48586;50.122;18.972;2022-09-02T17:11:19;5.05;;;2.83;;
41039;SDS011;48586;50.122;18.972;2022-09-02T17:14:22;10.13;;;4.47;;
41039;SDS011;48586;50.122;18.972;2022-09-02T17:17:26;8.13;;;3.70;;
41039;SDS011;48586;50.122;18.972;2022-09-02T17:20:28;8.40;;;3.25;;
41039;SDS011;48586;50.122;18.972;2022-09-02T17:23:30;8.98;;;3.88;;
41039;SDS011;48586;50.122;18.972;2022-09-02T17:26:32;6.15;;;3.22;;
41039;SDS011;48586;50.122;18.972;2022-09-02T17:32:40;7.18;;;3.30;;
41039;SDS011;48586;50.122;18.972;2022-09-02T17:35:53;6.97;;;3.72;;
41039;SDS011;48586;50.122;18.972;2022-09-02T17:38:56;7.57;;;4.05;;
41039;SDS011;48586;50.122;18.972;2022-09-02T17:41:59;11.13;;;4.55;;
41039;SDS011;48586;50.122;18.972;2022-09-02T17:45:01;11.23;;;3.95;;
41039;SDS011;48586;50.122;18.972;2022-09-02T17:48:05;7.88;;;3.60;;
41039;SDS011;48586;50.122;18.972;2022-09-02T17:51:07;6.03;;;4.25;;
41039;SDS011;48586;50.122;18.972;2022-09-02T17:54:09;11.68;;;3.13;;
41039;SDS011;48586;50.122;18.972;2022-09-02T17:57:19;7.55;;;2.83;;
41039;SDS011;48586;50.122;18.972;2022-09-02T18:00:24;10.10;;;3.50;;
41039;SDS011;48586;50.122;18.972;2022-09-02T18:03:35;5.38;;;2.85;;
41039;SDS011;48586;50.122;18.972;2022-09-02T18:06:45;5.82;;;3.15;;
41039;SDS011;48586;50.122;18.972;2022-09-02T18:09:50;7.88;;;3.55;;
41039;SDS011;48586;50.122;18.972;2022-09-02T18:12:53;7.38;;;3.33;;
41039;SDS011;48586;50.122;18.972;2022-09-02T18:15:58;8.75;;;3.92;;
41039;SDS011;48586;50.122;18.972;2022-09-02T18:19:17;13.95;;;3.50;;
41039;SDS011;48586;50.122;18.972;2022-09-02T18:22:34;12.32;;;3.17;;
41039;SDS011;48586;50.122;18.972;2022-09-02T18:25:47;9.15;;;2.83;;
41039;SDS011;48586;50.122;18.972;2022-09-02T18:28:54;8.05;;;3.20;;
41039;SDS011;48586;50.122;18.972;2022-09-02T18:35:22;7.90;;;3.20;;
41039;SDS011;48586;50.122;18.972;2022-09-02T18:38:35;6.13;;;3.03;;
41039;SDS011;48586;50.122;18.972;2022-09-02T18:41:49;7.10;;;4.00;;
41039;SDS011;48586;50.122;18.972;2022-09-02T18:45:04;10.60;;;3.95;;
41039;SDS011;48586;50.122;18.972;2022-09-02T18:48:10;14.98;;;6.57;;
41039;SDS011;48586;50.122;18.972;2022-09-02T18:51:17;12.05;;;5.00;;
41039;SDS011;48586;50.122;18.972;2022-09-02T18:54:26;8.20;;;4.18;;
41039;SDS011;48586;50.122;18.972;2022-09-02T18:57:33;10.73;;;4.00;;
41039;SDS011;48586;50.122;18.972;2022-09-02T19:00:43;8.38;;;3.10;;
41039;SDS011;48586;50.122;18.972;2022-09-02T19:03:49;8.07;;;2.83;;
41039;SDS011;48586;50.122;18.972;2022-09-02T19:06:53;9.75;;;3.13;;
41039;SDS011;48586;50.122;18.972;2022-09-02T19:10:16;4.82;;;2.70;;
41039;SDS011;48586;50.122;18.972;2022-09-02T19:13:17;6.13;;;3.50;;
41039;SDS011;48586;50.122;18.972;2022-09-02T19:16:21;4.82;;;2.83;;
41039;SDS011;48586;50.122;18.972;2022-09-02T19:19:25;5.88;;;3.00;;
41039;SDS011;48586;50.122;18.972;2022-09-02T19:22:29;5.28;;;2.80;;
41039;SDS011;48586;50.122;18.972;2022-09-02T19:25:32;9.85;;;3.10;;
41039;SDS011;48586;50.122;18.972;2022-09-02T19:28:36;6.60;;;2.83;;